Time;durP1;ratioP1;P1;durP2;ratioP2;P2;SDS_P1;SDS_P2;PMS_P1;PMS_P2;Temp;Humidity;BMP_temperature;BMP_pressure;BME280_temperature;BME280_humidity;BME280_pressure;Samples;Min_cycle;Max_cycle;Signal;HPM_P1;HPM_P2
2022/03/02 00:01:04;;;;;;;14.52;8.40;;;;;;;;;;5052913;28;20057;-78
2022/03/02 00:03:33;;;;;;;14.82;8.30;;;;;;;;;;5053332;28;20141;-78
2022/03/02 00:06:00;;;;;;;14.20;8.73;;;;;;;;;;5053316;28;20562;-79
2022/03/02 00:08:32;;;;;;;13.23;8.07;;;;;;;;;;5058281;28;20068;-77
2022/03/02 00:10:59;;;;;;;15.10;8.60;;;;;;;;;;5054204;28;20049;-78
2022/03/02 00:13:29;;;;;;;14.65;8.65;;;;;;;;;;5052055;28;20061;-80
2022/03/02 00:15:56;;;;;;;14.95;8.95;;;;;;;;;;5051479;28;20064;-78
2022/03/02 00:18:23;;;;;;;14.07;8.52;;;;;;;;;;5051095;28;20111;-78
2022/03/02 00:20:50;;;;;;;15.65;9.15;;;;;;;;;;5051761;28;20052;-78
2022/03/02 00:23:17;;;;;;;14.80;9.18;;;;;;;;;;5051062;28;20044;-78
2022/03/02 00:25:45;;;;;;;14.57;8.50;;;;;;;;;;5064492;28;20067;-78
2022/03/02 00:28:13;;;;;;;13.63;8.40;;;;;;;;;;5073227;28;20108;-78
2022/03/02 00:30:40;;;;;;;18.90;9.57;;;;;;;;;;5053364;28;20103;-78
2022/03/02 00:33:07;;;;;;;19.05;9.52;;;;;;;;;;5054304;28;20055;-78
2022/03/02 00:35:35;;;;;;;16.92;9.65;;;;;;;;;;5056725;28;20056;-78
2022/03/02 00:38:06;;;;;;;16.05;9.50;;;;;;;;;;5055302;28;20099;-78
2022/03/02 00:40:33;;;;;;;;;;;;;;;;;;5059278;28;20052;-78
2022/03/02 00:43:01;;;;;;;16.77;9.40;;;;;;;;;;5059786;28;19971;-78
2022/03/02 00:45:28;;;;;;;14.18;9.27;;;;;;;;;;5073542;28;20453;-78
2022/03/02 00:47:55;;;;;;;14.02;9.18;;;;;;;;;;5067850;28;20044;-77
2022/03/02 00:50:22;;;;;;;17.85;10.38;;;;;;;;;;5062953;28;20526;-78
2022/03/02 00:52:49;;;;;;;13.48;8.82;;;;;;;;;;5061748;28;20048;-78
2022/03/02 00:55:16;;;;;;;16.50;9.85;;;;;;;;;;5062035;28;20044;-78
2022/03/02 00:57:43;;;;;;;16.70;9.48;;;;;;;;;;5066609;28;20113;-78
2022/03/02 01:00:12;;;;;;;14.38;8.57;;;;;;;;;;5072332;28;20506;-78
2022/03/02 01:02:40;;;;;;;13.20;8.35;;;;;;;;;;5072470;28;20106;-78
2022/03/02 01:05:08;;;;;;;14.50;8.73;;;;;;;;;;5072204;28;20048;-78
2022/03/02 01:07:35;;;;;;;16.20;9.10;;;;;;;;;;5063155;28;20045;-78
2022/03/02 01:10:04;;;;;;;14.00;9.43;;;;;;;;;;5052402;28;20045;-78
2022/03/02 01:12:31;;;;;;;16.48;9.73;;;;;;;;;;5052389;28;20048;-78
2022/03/02 01:14:58;;;;;;;15.80;9.15;;;;;;;;;;5052135;28;20052;-78
2022/03/02 01:17:27;;;;;;;33.70;14.95;;;;;;;;;;5052513;28;20530;-78
2022/03/02 01:19:53;;;;;;;31.92;16.00;;;;;;;;;;5053095;28;20052;-78
2022/03/02 01:22:21;;;;;;;22.02;11.13;;;;;;;;;;5054045;28;20052;-78
2022/03/02 01:24:47;;;;;;;14.30;9.55;;;;;;;;;;5073762;28;20048;-78
2022/03/02 01:27:14;;;;;;;15.02;9.25;;;;;;;;;;5076179;28;20036;-78
2022/03/02 01:29:41;;;;;;;14.10;9.10;;;;;;;;;;5076987;28;20041;-78
2022/03/02 01:32:10;;;;;;;12.70;7.93;;;;;;;;;;5076506;28;20048;-78
2022/03/02 01:34:39;;;;;;;13.20;8.05;;;;;;;;;;5076135;28;20068;-78
2022/03/02 01:37:05;;;;;;;11.85;7.80;;;;;;;;;;5075475;28;20036;-78
2022/03/02 01:39:32;;;;;;;15.00;8.40;;;;;;;;;;5074881;28;20037;-78
2022/03/02 01:41:59;;;;;;;15.10;8.73;;;;;;;;;;5053177;28;20466;-78
2022/03/02 01:44:28;;;;;;;14.00;8.40;;;;;;;;;;5053247;28;20076;-78
2022/03/02 01:46:55;;;;;;;15.07;8.65;;;;;;;;;;5075977;28;20036;-78
2022/03/02 01:49:22;;;;;;;13.88;8.40;;;;;;;;;;5070980;28;20079;-78
2022/03/02 01:51:50;;;;;;;15.23;9.80;;;;;;;;;;5071529;28;20083;-78
2022/03/02 01:54:17;;;;;;;19.83;9.57;;;;;;;;;;5062592;28;20044;-78
2022/03/02 01:56:44;;;;;;;15.68;8.98;;;;;;;;;;5059568;28;20145;-78
2022/03/02 01:59:11;;;;;;;13.98;9.43;;;;;;;;;;5069479;28;20110;-78
2022/03/02 02:01:38;;;;;;;15.57;9.38;;;;;;;;;;5076667;28;20086;-78
2022/03/02 02:04:07;;;;;;;16.80;9.00;;;;;;;;;;5075841;28;20522;-78
2022/03/02 02:06:34;;;;;;;15.02;9.27;;;;;;;;;;5075932;28;20049;-78
2022/03/02 02:09:05;;;;;;;14.00;8.32;;;;;;;;;;5075854;28;20101;-78
2022/03/02 02:11:32;;;;;;;14.18;8.90;;;;;;;;;;5076499;28;20045;-78
2022/03/02 02:14:01;;;;;;;15.27;8.88;;;;;;;;;;5075782;28;20048;-78
2022/03/02 02:16:28;;;;;;;14.85;8.98;;;;;;;;;;5075504;28;20227;-78
2022/03/02 02:18:55;;;;;;;13.05;7.70;;;;;;;;;;5075661;28;20044;-78
2022/03/02 02:21:24;;;;;;;15.65;8.65;;;;;;;;;;5075525;28;20053;-78
2022/03/02 02:23:51;;;;;;;17.75;9.32;;;;;;;;;;5075686;28;20049;-78
2022/03/02 02:26:21;;;;;;;14.18;8.15;;;;;;;;;;5075720;28;20076;-78
2022/03/02 02:28:48;;;;;;;14.57;8.50;;;;;;;;;;5075832;28;20473;-78
2022/03/02 02:31:16;;;;;;;13.63;8.10;;;;;;;;;;5078309;28;20040;-78
2022/03/02 02:33:43;;;;;;;12.80;8.10;;;;;;;;;;5079863;28;20098;-78
2022/03/02 02:36:10;;;;;;;13.25;7.95;;;;;;;;;;5079784;28;20155;-78
2022/03/02 02:38:40;;;;;;;14.90;8.57;;;;;;;;;;5077783;28;20044;-78
2022/03/02 02:41:09;;;;;;;12.50;8.20;;;;;;;;;;5077302;28;20094;-78
2022/03/02 02:43:37;;;;;;;15.20;8.55;;;;;;;;;;5076901;28;20044;-78
2022/03/02 02:46:04;;;;;;;19.13;9.00;;;;;;;;;;5052833;22;20049;-79
2022/03/02 02:48:31;;;;;;;13.70;8.52;;;;;;;;;;5037914;28;20053;-79
2022/03/02 02:50:58;;;;;;;14.02;8.13;;;;;;;;;;5038268;28;20123;-77
2022/03/02 02:53:25;;;;;;;14.23;9.02;;;;;;;;;;5036817;28;20049;-79
2022/03/02 02:55:54;;;;;;;14.80;8.55;;;;;;;;;;5019385;28;20064;-77
2022/03/02 02:58:21;;;;;;;17.75;8.55;;;;;;;;;;5015297;28;20054;-78
2022/03/02 03:00:50;;;;;;;14.55;8.70;;;;;;;;;;5015167;28;20468;-78
2022/03/02 03:03:16;;;;;;;12.90;8.20;;;;;;;;;;5014731;28;20137;-77
2022/03/02 03:05:44;;;;;;;12.70;8.30;;;;;;;;;;5015723;28;20057;-77
2022/03/02 03:08:12;;;;;;;13.18;7.97;;;;;;;;;;5015399;28;20042;-77
2022/03/02 03:10:40;;;;;;;12.80;8.05;;;;;;;;;;5015199;28;20053;-77
2022/03/02 03:13:09;;;;;;;14.70;8.55;;;;;;;;;;5015508;28;20116;-78
2022/03/02 03:15:36;;;;;;;15.40;8.20;;;;;;;;;;5015815;28;20128;-79
2022/03/02 03:18:04;;;;;;;13.75;9.13;;;;;;;;;;5015212;28;20049;-79
2022/03/02 03:20:31;;;;;;;15.85;8.68;;;;;;;;;;5015638;28;20053;-79
2022/03/02 03:22:59;;;;;;;15.13;8.35;;;;;;;;;;5015699;28;20405;-78
2022/03/02 03:25:27;;;;;;;12.40;7.97;;;;;;;;;;5015281;28;20056;-78
2022/03/02 03:27:54;;;;;;;14.27;7.57;;;;;;;;;;5015129;28;20045;-78
2022/03/02 03:30:24;;;;;;;12.98;8.63;;;;;;;;;;5015251;28;20463;-78
2022/03/02 03:32:52;;;;;;;13.50;7.68;;;;;;;;;;5018002;28;20057;-78
2022/03/02 03:35:21;;;;;;;12.65;7.57;;;;;;;;;;5017960;28;20050;-78
2022/03/02 03:37:48;;;;;;;14.02;7.97;;;;;;;;;;5016917;28;20459;-79
2022/03/02 03:40:16;;;;;;;12.60;7.78;;;;;;;;;;5017537;28;20068;-79
2022/03/02 03:42:44;;;;;;;13.48;7.65;;;;;;;;;;5017107;28;20077;-79
2022/03/02 03:45:11;;;;;;;14.98;7.45;;;;;;;;;;5016868;28;20041;-79
2022/03/02 03:47:40;;;;;;;14.48;8.15;;;;;;;;;;5016460;28;20085;-79
2022/03/02 03:50:08;;;;;;;14.40;8.18;;;;;;;;;;5016672;28;20046;-79
2022/03/02 03:52:35;;;;;;;11.80;7.32;;;;;;;;;;5016326;28;20053;-79
2022/03/02 03:55:03;;;;;;;13.60;8.20;;;;;;;;;;5016048;28;20444;-79
2022/03/02 03:57:30;;;;;;;15.65;8.55;;;;;;;;;;5015514;28;20082;-79
2022/03/02 03:59:57;;;;;;;15.70;9.18;;;;;;;;;;5015911;28;20425;-78
2022/03/02 04:02:23;;;;;;;17.02;8.63;;;;;;;;;;5015880;28;20045;-78
2022/03/02 04:04:51;;;;;;;13.30;7.80;;;;;;;;;;5015788;28;20460;-78
2022/03/02 04:07:18;;;;;;;13.75;7.25;;;;;;;;;;5016094;28;20050;-79
2022/03/02 04:09:45;;;;;;;13.43;7.10;;;;;;;;;;5015529;28;20046;-79
2022/03/02 04:12:12;;;;;;;12.18;7.22;;;;;;;;;;5015636;28;20053;-79
2022/03/02 04:14:39;;;;;;;11.73;7.65;;;;;;;;;;5015460;28;20508;-79
2022/03/02 04:17:06;;;;;;;12.77;7.80;;;;;;;;;;5014928;28;20050;-79
2022/03/02 04:19:32;;;;;;;12.73;7.93;;;;;;;;;;5015281;28;20485;-79
2022/03/02 04:22:01;;;;;;;12.57;7.60;;;;;;;;;;5015118;28;20057;-80
2022/03/02 04:24:27;;;;;;;13.90;7.93;;;;;;;;;;5015607;28;20054;-78
2022/03/02 04:26:54;;;;;;;11.82;6.57;;;;;;;;;;5015530;28;20046;-79
2022/03/02 04:29:21;;;;;;;13.85;7.53;;;;;;;;;;5015294;28;20493;-77
2022/03/02 04:31:48;;;;;;;14.32;7.50;;;;;;;;;;5015770;28;20050;-81
2022/03/02 04:34:15;;;;;;;13.15;7.22;;;;;;;;;;5014797;28;20053;-78
2022/03/02 04:36:42;;;;;;;11.60;6.90;;;;;;;;;;5014969;28;20108;-79
2022/03/02 04:39:10;;;;;;;13.05;7.97;;;;;;;;;;5014816;28;20046;-79
2022/03/02 04:41:36;;;;;;;11.23;7.28;;;;;;;;;;5015173;28;20562;-79
2022/03/02 04:44:04;;;;;;;13.93;7.50;;;;;;;;;;5015305;28;20045;-79
2022/03/02 04:46:30;;;;;;;14.80;7.82;;;;;;;;;;5015401;28;20053;-79
2022/03/02 04:48:57;;;;;;;11.70;7.32;;;;;;;;;;5015160;28;20046;-79
2022/03/02 04:51:24;;;;;;;12.93;7.00;;;;;;;;;;5015138;28;20046;-79
2022/03/02 04:53:51;;;;;;;12.48;7.50;;;;;;;;;;5015573;28;20496;-79
2022/03/02 04:56:19;;;;;;;14.07;7.38;;;;;;;;;;5015980;28;20110;-80
2022/03/02 04:58:46;;;;;;;12.77;7.68;;;;;;;;;;5024651;28;20053;-79
2022/03/02 05:01:13;;;;;;;14.60;8.18;;;;;;;;;;5034965;28;20052;-80
2022/03/02 05:03:40;;;;;;;13.98;8.82;;;;;;;;;;5035609;28;20088;-79
2022/03/02 05:06:07;;;;;;;15.45;8.77;;;;;;;;;;5035200;28;20108;-80
2022/03/02 05:08:34;;;;;;;17.08;9.30;;;;;;;;;;5036119;28;20056;-80
2022/03/02 05:11:00;;;;;;;18.45;8.40;;;;;;;;;;5035207;28;20052;-80
2022/03/02 05:13:29;;;;;;;16.38;7.85;;;;;;;;;;5035643;28;20057;-80
2022/03/02 05:15:55;;;;;;;15.07;8.57;;;;;;;;;;5035527;28;20045;-81
2022/03/02 05:18:22;;;;;;;11.88;7.50;;;;;;;;;;5035987;28;20492;-80
2022/03/02 05:20:49;;;;;;;12.73;7.72;;;;;;;;;;5035797;28;20053;-79
2022/03/02 05:23:16;;;;;;;12.32;8.05;;;;;;;;;;5035765;28;20045;-79
2022/03/02 05:25:43;;;;;;;14.98;7.90;;;;;;;;;;5037643;28;20115;-79
2022/03/02 05:28:10;;;;;;;12.02;7.30;;;;;;;;;;5038693;28;20493;-79
2022/03/02 05:30:38;;;;;;;13.43;8.38;;;;;;;;;;5039272;28;20109;-78
2022/03/02 05:33:05;;;;;;;12.65;7.70;;;;;;;;;;5040124;28;20045;-78
2022/03/02 05:35:31;;;;;;;15.15;8.05;;;;;;;;;;5039502;28;20103;-80
2022/03/02 05:37:58;;;;;;;14.43;8.00;;;;;;;;;;5039697;28;20049;-80
2022/03/02 05:40:26;;;;;;;16.38;8.95;;;;;;;;;;5039954;28;20049;-81
2022/03/02 05:42:55;;;;;;;15.70;9.02;;;;;;;;;;5041261;28;20393;-79
2022/03/02 05:45:22;;;;;;;19.15;9.57;;;;;;;;;;5040758;28;20049;-80
2022/03/02 05:47:50;;;;;;;16.27;9.27;;;;;;;;;;5039480;28;20122;-79
2022/03/02 05:50:17;;;;;;;19.25;8.98;;;;;;;;;;5039674;28;20056;-79
2022/03/02 05:52:43;;;;;;;16.48;8.70;;;;;;;;;;5041566;28;20057;-79
2022/03/02 05:55:10;;;;;;;17.70;9.18;;;;;;;;;;5041655;28;20049;-79
2022/03/02 05:57:38;;;;;;;16.73;9.07;;;;;;;;;;5044132;28;20046;-81
2022/03/02 06:00:07;;;;;;;16.35;9.68;;;;;;;;;;5044639;28;20050;-79
2022/03/02 06:02:33;;;;;;;15.60;9.30;;;;;;;;;;5043052;28;20049;-79
2022/03/02 06:05:02;;;;;;;16.17;8.60;;;;;;;;;;5041708;28;20049;-78
2022/03/02 06:07:28;;;;;;;20.60;9.63;;;;;;;;;;5041335;28;20083;-79
2022/03/02 06:09:56;;;;;;;21.23;10.30;;;;;;;;;;5042326;28;20111;-79
2022/03/02 06:12:23;;;;;;;16.45;9.68;;;;;;;;;;5041756;28;20451;-81
2022/03/02 06:14:51;;;;;;;19.58;9.85;;;;;;;;;;5045260;28;20050;-79
2022/03/02 06:17:18;;;;;;;17.88;9.40;;;;;;;;;;5039086;28;20095;-80
2022/03/02 06:19:45;;;;;;;16.50;9.00;;;;;;;;;;5039488;28;20053;-79
2022/03/02 06:22:17;;;;;;;19.42;9.75;;;;;;;;;;5039764;28;20055;-79
2022/03/02 06:24:44;;;;;;;16.23;9.13;;;;;;;;;;5038641;28;20053;-79
2022/03/02 06:27:11;;;;;;;24.13;9.45;;;;;;;;;;5039409;28;20511;-79
2022/03/02 06:29:38;;;;;;;16.70;8.13;;;;;;;;;;5040578;28;20049;-79
2022/03/02 06:32:06;;;;;;;16.92;8.52;;;;;;;;;;5040119;28;20056;-79
2022/03/02 06:34:33;;;;;;;18.00;9.73;;;;;;;;;;5042025;28;20097;-79
2022/03/02 06:37:00;;;;;;;20.10;9.63;;;;;;;;;;5040364;28;20048;-79
2022/03/02 06:39:28;;;;;;;19.67;10.23;;;;;;;;;;5041207;28;20049;-79
2022/03/02 06:42:05;;;;;;;21.38;10.77;;;;;;;;;;5038411;28;20049;-79
2022/03/02 06:44:34;;;;;;;20.48;10.82;;;;;;;;;;5037859;28;20053;-79
2022/03/02 06:47:04;;;;;;;21.52;9.85;;;;;;;;;;5038637;28;20055;-79
2022/03/02 06:49:45;;;;;;;17.85;10.20;;;;;;;;;;5039256;28;20076;-79
2022/03/02 06:52:13;;;;;;;20.88;10.40;;;;;;;;;;5038491;28;20061;-79
2022/03/02 06:54:44;;;;;;;19.27;10.45;;;;;;;;;;5040242;28;20574;-80
2022/03/02 06:57:13;;;;;;;17.98;10.15;;;;;;;;;;5037883;28;20081;-80
2022/03/02 06:59:42;;;;;;;16.63;10.32;;;;;;;;;;5037773;28;20057;-80
2022/03/02 07:02:11;;;;;;;18.33;9.65;;;;;;;;;;5038864;28;20054;-80
2022/03/02 07:04:40;;;;;;;17.95;9.60;;;;;;;;;;5037750;28;20092;-80
2022/03/02 07:07:08;;;;;;;18.33;10.75;;;;;;;;;;5037728;28;20119;-80
2022/03/02 07:09:35;;;;;;;23.05;12.18;;;;;;;;;;5037912;28;20049;-80
2022/03/02 07:12:05;;;;;;;19.88;10.90;;;;;;;;;;5037912;28;20080;-80
2022/03/02 07:14:36;;;;;;;19.98;11.38;;;;;;;;;;5037986;28;20049;-80
2022/03/02 07:17:04;;;;;;;17.90;10.73;;;;;;;;;;5038408;28;20124;-80
2022/03/02 07:19:31;;;;;;;18.17;10.68;;;;;;;;;;5038203;28;20104;-80
2022/03/02 07:22:03;;;;;;;18.48;10.63;;;;;;;;;;5037995;28;20097;-79
2022/03/02 07:24:37;;;;;;;18.67;10.85;;;;;;;;;;5025840;28;20049;-80
2022/03/02 07:27:05;;;;;;;19.38;10.15;;;;;;;;;;5022883;28;20104;-80
2022/03/02 07:29:35;;;;;;;20.20;10.95;;;;;;;;;;5022319;28;20060;-80
2022/03/02 07:32:04;;;;;;;18.85;10.50;;;;;;;;;;5021421;28;20050;-80
2022/03/02 07:34:33;;;;;;;19.52;10.73;;;;;;;;;;5016868;28;20046;-80
2022/03/02 07:37:00;;;;;;;17.83;10.77;;;;;;;;;;5016766;28;20100;-80
2022/03/02 07:39:28;;;;;;;19.75;10.70;;;;;;;;;;5018401;28;20089;-79
2022/03/02 07:41:55;;;;;;;19.38;9.95;;;;;;;;;;5022864;28;20045;-79
2022/03/02 07:44:23;;;;;;;20.55;9.65;;;;;;;;;;5022895;28;20050;-79
2022/03/02 07:46:50;;;;;;;21.45;10.18;;;;;;;;;;5019225;28;20050;-80
2022/03/02 07:49:17;;;;;;;20.35;9.73;;;;;;;;;;5017248;28;20057;-80
2022/03/02 07:51:45;;;;;;;20.92;10.10;;;;;;;;;;5026834;28;20072;-80
2022/03/02 07:54:15;;;;;;;22.63;10.73;;;;;;;;;;5025577;28;20050;-79
2022/03/02 07:56:44;;;;;;;19.57;11.20;;;;;;;;;;5024230;28;20111;-79
2022/03/02 07:59:11;;;;;;;20.65;11.40;;;;;;;;;;5018519;28;20485;-79
2022/03/02 08:01:39;;;;;;;17.75;9.68;;;;;;;;;;5018233;28;20058;-79
2022/03/02 08:04:08;;;;;;;19.63;11.45;;;;;;;;;;5018336;28;20112;-80
2022/03/02 08:06:36;;;;;;;20.58;11.02;;;;;;;;;;5015503;28;20104;-78
2022/03/02 08:09:05;;;;;;;23.48;10.85;;;;;;;;;;5019966;28;20046;-82
2022/03/02 08:11:34;;;;;;;19.25;10.32;;;;;;;;;;5017383;28;20398;-81
2022/03/02 08:14:06;;;;;;;17.17;9.82;;;;;;;;;;5015998;28;20162;-80
2022/03/02 08:16:33;;;;;;;21.75;10.18;;;;;;;;;;5017004;28;20046;-81
2022/03/02 08:19:02;;;;;;;18.48;10.13;;;;;;;;;;5019131;28;20104;-82
2022/03/02 08:21:31;;;;;;;16.10;10.18;;;;;;;;;;5019029;28;20050;-80
2022/03/02 08:24:02;;;;;;;18.00;10.13;;;;;;;;;;5015081;28;20100;-80
2022/03/02 08:26:32;;;;;;;16.58;9.20;;;;;;;;;;5014190;28;20050;-80
2022/03/02 08:29:04;;;;;;;18.05;10.20;;;;;;;;;;5015310;28;20390;-80
2022/03/02 08:31:50;;;;;;;22.55;11.95;;;;;;;;;;5014999;28;20128;-81
2022/03/02 08:34:57;;;;;;;18.85;10.30;;;;;;;;;;5012649;28;20046;-80
2022/03/02 08:37:25;;;;;;;18.23;9.48;;;;;;;;;;5016887;28;20042;-81
2022/03/02 08:39:57;;;;;;;17.33;9.85;;;;;;;;;;5014270;28;20048;-80
2022/03/02 08:42:28;;;;;;;17.60;9.80;;;;;;;;;;5014433;28;20103;-79
2022/03/02 08:45:16;;;;;;;19.38;9.73;;;;;;;;;;5030004;28;20053;-82
2022/03/02 08:47:49;;;;;;;16.30;8.48;;;;;;;;;;5030510;28;20073;-80
2022/03/02 08:50:17;;;;;;;24.08;11.50;;;;;;;;;;5028762;28;20046;-80
2022/03/02 08:52:45;;;;;;;20.63;10.70;;;;;;;;;;5026586;28;20046;-79
2022/03/02 08:55:11;;;;;;;19.38;10.32;;;;;;;;;;5028534;28;20049;-79
2022/03/02 08:57:42;;;;;;;17.80;10.38;;;;;;;;;;5025027;28;20112;-80
2022/03/02 09:00:11;;;;;;;19.77;10.63;;;;;;;;;;5026267;28;20132;-80
2022/03/02 09:02:38;;;;;;;23.15;10.23;;;;;;;;;;5029314;28;20107;-82
2022/03/02 09:05:07;;;;;;;16.35;9.60;;;;;;;;;;5029509;28;20049;-79
2022/03/02 09:07:36;;;;;;;16.20;8.70;;;;;;;;;;5023111;28;20556;-80
2022/03/02 09:10:04;;;;;;;16.77;9.00;;;;;;;;;;5081324;22;20040;-77
2022/03/02 09:12:31;;;;;;;14.45;9.05;;;;;;;;;;5039039;28;20091;-78
2022/03/02 09:14:59;;;;;;;16.67;9.10;;;;;;;;;;5040153;28;20433;-78
2022/03/02 09:17:26;;;;;;;18.58;8.95;;;;;;;;;;5034836;28;20049;-78
2022/03/02 09:19:53;;;;;;;15.73;9.18;;;;;;;;;;5036704;28;20076;-78
2022/03/02 09:22:23;;;;;;;15.93;8.43;;;;;;;;;;5034064;28;20103;-78
2022/03/02 09:24:52;;;;;;;16.30;8.85;;;;;;;;;;5039424;28;20128;-78
2022/03/02 09:27:20;;;;;;;19.88;10.27;;;;;;;;;;5031767;28;20042;-77
2022/03/02 09:29:48;;;;;;;16.17;8.75;;;;;;;;;;5036360;28;20083;-77
2022/03/02 09:32:16;;;;;;;15.98;8.40;;;;;;;;;;5039541;28;20049;-77
2022/03/02 09:34:48;;;;;;;15.95;8.82;;;;;;;;;;5036562;28;20084;-77
2022/03/02 09:37:16;;;;;;;17.40;10.43;;;;;;;;;;5038059;28;20076;-78
2022/03/02 09:39:44;;;;;;;19.17;9.15;;;;;;;;;;5045615;28;20041;-78
2022/03/02 09:42:15;;;;;;;14.27;7.78;;;;;;;;;;5057454;28;20045;-78
2022/03/02 09:44:45;;;;;;;12.52;8.15;;;;;;;;;;5057549;28;20049;-78
2022/03/02 09:47:17;;;;;;;15.20;9.20;;;;;;;;;;5057646;28;20052;-81
2022/03/02 09:49:48;;;;;;;11.57;7.85;;;;;;;;;;5057013;28;20087;-79
2022/03/02 09:52:19;;;;;;;14.40;7.40;;;;;;;;;;5061491;28;20434;-80
2022/03/02 09:54:47;;;;;;;14.05;8.43;;;;;;;;;;5061761;28;20128;-77
2022/03/02 09:57:19;;;;;;;15.45;8.00;;;;;;;;;;5059625;28;20053;-77
2022/03/02 09:59:51;;;;;;;14.70;7.57;;;;;;;;;;5060240;28;20041;-78
2022/03/02 10:02:30;;;;;;;12.88;8.15;;;;;;;;;;5057688;28;20551;-78
2022/03/02 10:05:03;;;;;;;12.75;8.30;;;;;;;;;;5053034;28;20048;-78
2022/03/02 10:07:35;;;;;;;14.02;7.95;;;;;;;;;;5049668;28;20048;-77
2022/03/02 10:10:09;;;;;;;17.10;8.10;;;;;;;;;;5049178;28;20500;-78
2022/03/02 10:12:40;;;;;;;13.32;7.70;;;;;;;;;;5053308;28;20158;-77
2022/03/02 10:15:09;;;;;;;12.77;7.40;;;;;;;;;;5054933;28;20499;-78
2022/03/02 10:17:38;;;;;;;13.75;7.68;;;;;;;;;;5054515;28;20045;-78
2022/03/02 10:20:07;;;;;;;14.98;7.82;;;;;;;;;;5055085;28;20051;-78
2022/03/02 10:23:21;;;;;;;18.52;8.10;;;;;;;;;;5055653;28;20045;-78
2022/03/02 10:26:01;;;;;;;12.20;7.63;;;;;;;;;;4955079;29;20109;-78
2022/03/02 10:28:32;;;;;;;11.27;7.35;;;;;;;;;;4955176;29;20073;-78
2022/03/02 10:31:35;;;;;;;13.98;8.02;;;;;;;;;;5019450;28;20073;-78
2022/03/02 10:34:10;;;;;;;11.63;7.13;;;;;;;;;;5055954;28;20059;-78
2022/03/02 10:36:43;;;;;;;11.88;7.43;;;;;;;;;;5053837;28;20045;-77
2022/03/02 10:39:16;;;;;;;14.35;8.18;;;;;;;;;;5053305;28;20140;-77
2022/03/02 10:41:44;;;;;;;12.15;7.00;;;;;;;;;;5053788;28;20079;-77
2022/03/02 10:44:24;;;;;;;11.65;7.25;;;;;;;;;;5053772;28;20049;-77
2022/03/02 10:47:00;;;;;;;14.00;7.07;;;;;;;;;;5053860;28;20056;-77
2022/03/02 10:49:28;;;;;;;12.77;7.72;;;;;;;;;;5054277;28;20056;-77
2022/03/02 10:51:57;;;;;;;16.17;7.28;;;;;;;;;;5053280;28;20095;-77
2022/03/02 10:54:25;;;;;;;16.25;10.10;;;;;;;;;;5053804;28;20048;-77
2022/03/02 10:56:53;;;;;;;14.93;9.48;;;;;;;;;;5053250;28;20087;-77
2022/03/02 10:59:24;;;;;;;15.15;8.57;;;;;;;;;;5039775;28;20396;-77
2022/03/02 11:01:52;;;;;;;13.15;7.72;;;;;;;;;;5033963;28;20099;-78
2022/03/02 11:04:20;;;;;;;10.45;6.70;;;;;;;;;;5034061;28;20050;-78
2022/03/02 11:06:47;;;;;;;11.82;7.50;;;;;;;;;;5033860;28;20091;-78
2022/03/02 11:09:16;;;;;;;13.32;7.00;;;;;;;;;;5033311;28;20076;-78
2022/03/02 11:11:44;;;;;;;12.65;7.80;;;;;;;;;;5033264;28;20060;-78
2022/03/02 11:14:11;;;;;;;11.23;7.43;;;;;;;;;;5033618;28;20056;-78
2022/03/02 11:16:40;;;;;;;12.38;7.97;;;;;;;;;;5033290;28;20058;-77
2022/03/02 11:19:11;;;;;;;14.20;7.85;;;;;;;;;;5033533;28;20103;-78
2022/03/02 11:21:40;;;;;;;13.82;8.07;;;;;;;;;;5034182;28;20051;-78
2022/03/02 11:24:09;;;;;;;12.77;8.13;;;;;;;;;;5032840;28;20049;-78
2022/03/02 11:26:37;;;;;;;14.07;8.30;;;;;;;;;;5032922;28;20049;-78
2022/03/02 11:29:10;;;;;;;13.07;8.30;;;;;;;;;;5033409;28;20049;-78
2022/03/02 11:31:43;;;;;;;14.27;8.57;;;;;;;;;;5032858;28;20057;-78
2022/03/02 11:34:12;;;;;;;14.15;8.05;;;;;;;;;;5032855;28;20044;-78
2022/03/02 11:36:40;;;;;;;10.27;7.55;;;;;;;;;;5032502;28;20053;-78
2022/03/02 11:39:09;;;;;;;13.32;7.70;;;;;;;;;;5032435;28;20049;-80
2022/03/02 11:41:38;;;;;;;12.52;7.82;;;;;;;;;;5033260;28;20488;-78
2022/03/02 11:44:25;;;;;;;13.10;7.60;;;;;;;;;;5032688;28;20131;-78
2022/03/02 11:46:54;;;;;;;17.38;10.43;;;;;;;;;;5032398;28;20057;-78
2022/03/02 11:49:21;;;;;;;20.63;14.80;;;;;;;;;;5033300;28;20056;-79
2022/03/02 11:52:05;;;;;;;21.02;10.68;;;;;;;;;;5037827;28;20437;-79
2022/03/02 11:54:40;;;;;;;15.15;9.35;;;;;;;;;;5046689;28;20037;-83
2022/03/02 11:57:07;;;;;;;13.15;8.07;;;;;;;;;;5039339;28;20601;-77
2022/03/02 11:59:35;;;;;;;13.45;8.00;;;;;;;;;;5041882;28;20064;-80
2022/03/02 12:02:12;;;;;;;12.05;7.60;;;;;;;;;;5054610;28;20099;-81
2022/03/02 12:04:39;;;;;;;12.93;7.30;;;;;;;;;;5053137;28;20451;-78
2022/03/02 12:07:08;;;;;;;13.20;7.32;;;;;;;;;;5052283;28;20053;-78
2022/03/02 12:09:36;;;;;;;12.93;8.25;;;;;;;;;;5052324;28;20650;-78
2022/03/02 12:12:12;;;;;;;12.82;8.05;;;;;;;;;;5053056;28;20041;-77
2022/03/02 12:14:42;;;;;;;13.15;7.10;;;;;;;;;;5052304;28;20103;-77
2022/03/02 12:17:16;;;;;;;12.93;7.00;;;;;;;;;;5052171;28;20072;-78
2022/03/02 12:19:45;;;;;;;13.07;8.15;;;;;;;;;;5052396;28;20739;-78
2022/03/02 12:22:13;;;;;;;12.60;7.25;;;;;;;;;;5052421;28;20427;-78
2022/03/02 12:24:40;;;;;;;16.35;9.57;;;;;;;;;;5052414;28;20053;-78
2022/03/02 12:27:08;;;;;;;15.50;10.40;;;;;;;;;;5051739;28;20052;-78
2022/03/02 12:29:36;;;;;;;15.27;9.80;;;;;;;;;;5052634;28;20507;-80
2022/03/02 12:32:12;;;;;;;13.88;8.98;;;;;;;;;;5052336;28;20068;-78
2022/03/02 12:34:42;;;;;;;15.02;9.13;;;;;;;;;;5052775;28;20049;-78
2022/03/02 12:37:09;;;;;;;14.57;8.60;;;;;;;;;;5052989;28;20106;-79
2022/03/02 12:39:37;;;;;;;17.05;8.77;;;;;;;;;;5053859;28;20094;-78
2022/03/02 12:42:07;;;;;;;13.95;9.48;;;;;;;;;;5033319;28;20053;-78
2022/03/02 12:44:36;;;;;;;14.55;8.88;;;;;;;;;;5031430;28;20041;-78
2022/03/02 12:47:07;;;;;;;13.05;7.85;;;;;;;;;;5043065;28;20463;-79
2022/03/02 12:49:36;;;;;;;13.55;8.63;;;;;;;;;;5051983;28;20049;-77
2022/03/02 12:52:05;;;;;;;13.02;8.05;;;;;;;;;;5052393;28;20049;-78
2022/03/02 12:54:34;;;;;;;14.23;8.27;;;;;;;;;;5052704;28;20553;-78
2022/03/02 12:57:02;;;;;;;13.98;7.80;;;;;;;;;;5051939;28;20052;-77
2022/03/02 12:59:30;;;;;;;13.60;7.75;;;;;;;;;;5055479;28;20052;-78
2022/03/02 13:01:59;;;;;;;12.13;7.38;;;;;;;;;;5052395;28;20419;-78
2022/03/02 13:04:31;;;;;;;13.93;8.68;;;;;;;;;;5051832;28;20048;-78
2022/03/02 13:07:06;;;;;;;15.60;9.10;;;;;;;;;;5051731;28;20055;-78
2022/03/02 13:09:43;;;;;;;18.48;9.35;;;;;;;;;;5051691;28;20049;-78
2022/03/02 13:12:30;;;;;;;13.95;8.35;;;;;;;;;;5052023;28;20045;-79
2022/03/02 13:14:58;;;;;;;15.80;8.18;;;;;;;;;;5051925;28;20045;-78
2022/03/02 13:17:25;;;;;;;11.70;7.80;;;;;;;;;;5051221;28;20053;-78
2022/03/02 13:19:54;;;;;;;16.13;8.23;;;;;;;;;;5051133;28;20132;-78
2022/03/02 13:22:28;;;;;;;14.75;8.38;;;;;;;;;;5052260;28;20041;-78
2022/03/02 13:24:56;;;;;;;15.38;8.35;;;;;;;;;;5051611;28;20049;-78
2022/03/02 13:27:24;;;;;;;13.05;8.57;;;;;;;;;;5051572;28;20055;-78
2022/03/02 13:30:07;;;;;;;13.43;8.55;;;;;;;;;;5051523;28;20053;-78
2022/03/02 13:32:58;;;;;;;13.60;8.77;;;;;;;;;;5051946;28;20053;-78
2022/03/02 13:35:27;;;;;;;12.60;8.60;;;;;;;;;;5053730;28;20052;-78
2022/03/02 13:37:58;;;;;;;15.73;9.98;;;;;;;;;;5051191;28;20053;-79
2022/03/02 13:40:39;;;;;;;13.38;9.23;;;;;;;;;;5051282;28;20053;-78
2022/03/02 13:43:28;;;;;;;15.60;9.75;;;;;;;;;;5051456;28;20091;-78
2022/03/02 13:46:24;;;;;;;16.45;9.80;;;;;;;;;;5052728;28;20049;-78
2022/03/02 13:48:54;;;;;;;16.00;9.40;;;;;;;;;;5055280;28;20773;-78
2022/03/02 13:51:22;;;;;;;15.15;10.18;;;;;;;;;;5055993;28;20132;-78
2022/03/02 13:53:59;;;;;;;18.73;9.68;;;;;;;;;;5056383;28;20512;-78
2022/03/02 13:56:36;;;;;;;18.23;10.30;;;;;;;;;;5037080;28;20053;-78
2022/03/02 13:59:15;;;;;;;15.32;10.10;;;;;;;;;;5055467;28;20349;-78
2022/03/02 14:01:42;;;;;;;19.13;9.88;;;;;;;;;;5056199;28;20048;-78
2022/03/02 14:04:11;;;;;;;16.92;10.43;;;;;;;;;;5061795;28;20084;-77
2022/03/02 14:06:40;;;;;;;17.15;10.18;;;;;;;;;;5070700;28;20045;-78
2022/03/02 14:09:11;;;;;;;18.58;10.43;;;;;;;;;;5076392;28;20049;-76
2022/03/02 14:11:43;;;;;;;17.02;10.57;;;;;;;;;;5077115;28;20036;-78
2022/03/02 14:14:15;;;;;;;16.55;9.23;;;;;;;;;;5056045;28;20053;-78
2022/03/02 14:16:56;;;;;;;16.67;10.25;;;;;;;;;;5054917;28;20045;-78
2022/03/02 14:19:23;;;;;;;14.18;9.65;;;;;;;;;;5054760;28;20049;-78
2022/03/02 14:21:56;;;;;;;16.88;10.23;;;;;;;;;;5054909;28;20049;-78
2022/03/02 14:24:26;;;;;;;16.77;10.57;;;;;;;;;;5054905;28;20044;-78
2022/03/02 14:26:56;;;;;;;19.48;9.45;;;;;;;;;;5054604;28;20499;-78
2022/03/02 14:29:23;;;;;;;17.70;10.32;;;;;;;;;;5055367;28;20559;-78
2022/03/02 14:31:54;;;;;;;19.55;11.40;;;;;;;;;;5055186;28;20049;-79
2022/03/02 14:34:21;;;;;;;29.42;18.27;;;;;;;;;;5055100;28;20523;-79
2022/03/02 14:36:48;;;;;;;22.58;12.65;;;;;;;;;;5055137;28;20053;-79
2022/03/02 14:39:15;;;;;;;18.55;11.40;;;;;;;;;;5055230;28;20052;-78
2022/03/02 14:41:44;;;;;;;21.17;10.82;;;;;;;;;;5055435;28;20052;-79